sensor_id;sensor_type;location;lat;lon;timestamp;temperature;humidity
32536;DHT22;18974;50.838;4.636;2023-07-20T00:02:00;17.00;99.90
32536;DHT22;18974;50.838;4.636;2023-07-20T00:04:25;17.00;99.90
32536;DHT22;18974;50.838;4.636;2023-07-20T00:06:51;16.90;99.90
32536;DHT22;18974;50.838;4.636;2023-07-20T00:09:17;17.00;99.90
32536;DHT22;18974;50.838;4.636;2023-07-20T00:11:49;17.10;99.90
32536;DHT22;18974;50.838;4.636;2023-07-20T00:14:16;17.00;99.90
32536;DHT22;18974;50.838;4.636;2023-07-20T00:16:42;17.10;99.90
32536;DHT22;18974;50.838;4.636;2023-07-20T00:19:08;17.10;99.90
32536;DHT22;18974;50.838;4.636;2023-07-20T00:21:35;17.20;99.90
32536;DHT22;18974;50.838;4.636;2023-07-20T00:24:01;17.20;99.90
32536;DHT22;18974;50.838;4.636;2023-07-20T00:26:27;17.20;99.90
32536;DHT22;18974;50.838;4.636;2023-07-20T00:28:52;17.20;99.90
32536;DHT22;18974;50.838;4.636;2023-07-20T00:31:18;17.20;99.90
32536;DHT22;18974;50.838;4.636;2023-07-20T00:33:43;17.20;99.90
32536;DHT22;18974;50.838;4.636;2023-07-20T00:36:09;17.10;99.90
32536;DHT22;18974;50.838;4.636;2023-07-20T00:38:35;17.10;99.90
32536;DHT22;18974;50.838;4.636;2023-07-20T00:41:01;17.10;99.90
32536;DHT22;18974;50.838;4.636;2023-07-20T00:43:26;17.00;99.90
32536;DHT22;18974;50.838;4.636;2023-07-20T00:45:52;17.10;99.90
32536;DHT22;18974;50.838;4.636;2023-07-20T00:48:18;17.10;99.90
32536;DHT22;18974;50.838;4.636;2023-07-20T00:50:44;17.10;99.90
32536;DHT22;18974;50.838;4.636;2023-07-20T00:53:10;17.10;99.90
32536;DHT22;18974;50.838;4.636;2023-07-20T00:55:36;17.10;99.90
32536;DHT22;18974;50.838;4.636;2023-07-20T00:58:02;17.10;99.90
32536;DHT22;18974;50.838;4.636;2023-07-20T01:00:28;17.20;99.90
32536;DHT22;18974;50.838;4.636;2023-07-20T01:02:54;17.10;99.90
32536;DHT22;18974;50.838;4.636;2023-07-20T01:05:20;17.20;99.90
32536;DHT22;18974;50.838;4.636;2023-07-20T01:07:48;17.20;99.90
32536;DHT22;18974;50.838;4.636;2023-07-20T01:10:22;17.20;99.90
32536;DHT22;18974;50.838;4.636;2023-07-20T01:12:52;17.10;99.90
32536;DHT22;18974;50.838;4.636;2023-07-20T01:15:18;17.00;99.90
32536;DHT22;18974;50.838;4.636;2023-07-20T01:17:44;16.90;99.90
32536;DHT22;18974;50.838;4.636;2023-07-20T01:20:13;16.90;99.90
32536;DHT22;18974;50.838;4.636;2023-07-20T01:31:33;16.90;99.90
32536;DHT22;18974;50.838;4.636;2023-07-20T01:34:01;16.80;99.90
32536;DHT22;18974;50.838;4.636;2023-07-20T01:36:30;16.80;99.90
32536;DHT22;18974;50.838;4.636;2023-07-20T01:38:56;16.90;99.90
32536;DHT22;18974;50.838;4.636;2023-07-20T01:41:23;16.90;99.90
32536;DHT22;18974;50.838;4.636;2023-07-20T01:43:48;16.90;99.90
32536;DHT22;18974;50.838;4.636;2023-07-20T01:46:14;16.90;99.90
32536;DHT22;18974;50.838;4.636;2023-07-20T01:48:40;17.00;99.90
32536;DHT22;18974;50.838;4.636;2023-07-20T01:51:05;17.00;99.90
32536;DHT22;18974;50.838;4.636;2023-07-20T01:53:31;16.90;99.90
32536;DHT22;18974;50.838;4.636;2023-07-20T01:55:57;16.90;99.90
32536;DHT22;18974;50.838;4.636;2023-07-20T01:58:23;17.00;99.90
32536;DHT22;18974;50.838;4.636;2023-07-20T02:00:49;16.80;99.90
32536;DHT22;18974;50.838;4.636;2023-07-20T02:03:14;16.80;99.90
32536;DHT22;18974;50.838;4.636;2023-07-20T02:05:42;16.80;99.90
32536;DHT22;18974;50.838;4.636;2023-07-20T02:08:08;16.90;99.90
32536;DHT22;18974;50.838;4.636;2023-07-20T02:10:35;16.90;99.90
32536;DHT22;18974;50.838;4.636;2023-07-20T02:13:00;16.90;99.90
32536;DHT22;18974;50.838;4.636;2023-07-20T02:15:26;16.90;99.90
32536;DHT22;18974;50.838;4.636;2023-07-20T02:17:53;16.90;99.90
32536;DHT22;18974;50.838;4.636;2023-07-20T02:20:18;16.90;99.90
32536;DHT22;18974;50.838;4.636;2023-07-20T02:22:44;17.00;99.90
32536;DHT22;18974;50.838;4.636;2023-07-20T02:25:11;17.10;99.90
32536;DHT22;18974;50.838;4.636;2023-07-20T02:27:37;17.00;99.90
32536;DHT22;18974;50.838;4.636;2023-07-20T02:30:03;17.10;99.90
32536;DHT22;18974;50.838;4.636;2023-07-20T02:32:30;17.00;99.90
32536;DHT22;18974;50.838;4.636;2023-07-20T02:34:57;16.90;99.90
32536;DHT22;18974;50.838;4.636;2023-07-20T02:37:23;16.90;99.90
32536;DHT22;18974;50.838;4.636;2023-07-20T02:39:48;16.90;99.90
32536;DHT22;18974;50.838;4.636;2023-07-20T02:42:14;16.90;99.90
32536;DHT22;18974;50.838;4.636;2023-07-20T02:44:40;16.90;99.90
32536;DHT22;18974;50.838;4.636;2023-07-20T02:47:06;17.00;99.90
32536;DHT22;18974;50.838;4.636;2023-07-20T02:49:31;17.00;99.90
32536;DHT22;18974;50.838;4.636;2023-07-20T02:51:57;17.00;99.90
32536;DHT22;18974;50.838;4.636;2023-07-20T02:54:23;17.00;99.90
32536;DHT22;18974;50.838;4.636;2023-07-20T02:56:49;16.90;99.90
32536;DHT22;18974;50.838;4.636;2023-07-20T02:59:14;16.80;99.90
32536;DHT22;18974;50.838;4.636;2023-07-20T03:01:40;16.80;99.90
32536;DHT22;18974;50.838;4.636;2023-07-20T03:04:07;16.70;99.90
32536;DHT22;18974;50.838;4.636;2023-07-20T03:06:35;16.70;99.90
32536;DHT22;18974;50.838;4.636;2023-07-20T03:09:02;16.70;99.90
32536;DHT22;18974;50.838;4.636;2023-07-20T03:11:27;16.60;99.90
32536;DHT22;18974;50.838;4.636;2023-07-20T03:13:53;16.60;99.90
32536;DHT22;18974;50.838;4.636;2023-07-20T03:16:19;16.60;99.90
32536;DHT22;18974;50.838;4.636;2023-07-20T03:18:45;16.60;99.90
32536;DHT22;18974;50.838;4.636;2023-07-20T03:21:11;16.60;99.90
32536;DHT22;18974;50.838;4.636;2023-07-20T03:23:38;16.60;99.90
32536;DHT22;18974;50.838;4.636;2023-07-20T03:26:04;16.50;99.90
32536;DHT22;18974;50.838;4.636;2023-07-20T03:28:29;16.50;99.90
32536;DHT22;18974;50.838;4.636;2023-07-20T03:30:56;16.50;99.90
32536;DHT22;18974;50.838;4.636;2023-07-20T03:33:27;16.70;99.90
32536;DHT22;18974;50.838;4.636;2023-07-20T03:35:53;16.80;99.90
32536;DHT22;18974;50.838;4.636;2023-07-20T03:38:20;16.80;99.90
32536;DHT22;18974;50.838;4.636;2023-07-20T03:43:18;16.60;99.90
32536;DHT22;18974;50.838;4.636;2023-07-20T03:45:44;16.40;99.90
32536;DHT22;18974;50.838;4.636;2023-07-20T03:48:17;16.50;99.90
32536;DHT22;18974;50.838;4.636;2023-07-20T03:50:47;16.50;99.90
32536;DHT22;18974;50.838;4.636;2023-07-20T03:53:19;16.50;99.90
32536;DHT22;18974;50.838;4.636;2023-07-20T03:55:48;16.60;99.90
32536;DHT22;18974;50.838;4.636;2023-07-20T03:58:15;16.60;99.90
32536;DHT22;18974;50.838;4.636;2023-07-20T04:00:44;16.50;99.90
32536;DHT22;18974;50.838;4.636;2023-07-20T04:03:10;16.50;99.90
32536;DHT22;18974;50.838;4.636;2023-07-20T04:05:36;16.50;99.90
32536;DHT22;18974;50.838;4.636;2023-07-20T04:08:01;16.50;99.90
32536;DHT22;18974;50.838;4.636;2023-07-20T04:10:27;16.60;99.90
32536;DHT22;18974;50.838;4.636;2023-07-20T04:12:52;16.60;99.90
32536;DHT22;18974;50.838;4.636;2023-07-20T04:15:18;16.70;99.90
32536;DHT22;18974;50.838;4.636;2023-07-20T04:17:45;16.80;99.90
32536;DHT22;18974;50.838;4.636;2023-07-20T04:20:11;16.80;99.90
32536;DHT22;18974;50.838;4.636;2023-07-20T04:22:36;16.80;99.90
32536;DHT22;18974;50.838;4.636;2023-07-20T04:25:03;16.70;99.90
32536;DHT22;18974;50.838;4.636;2023-07-20T04:27:29;16.80;99.90
32536;DHT22;18974;50.838;4.636;2023-07-20T04:29:55;16.90;99.90
32536;DHT22;18974;50.838;4.636;2023-07-20T04:32:21;16.90;99.90
32536;DHT22;18974;50.838;4.636;2023-07-20T04:34:46;17.00;99.90
32536;DHT22;18974;50.838;4.636;2023-07-20T04:37:12;17.00;99.90
32536;DHT22;18974;50.838;4.636;2023-07-20T04:39:37;17.20;99.90
32536;DHT22;18974;50.838;4.636;2023-07-20T04:42:03;17.20;99.90
32536;DHT22;18974;50.838;4.636;2023-07-20T04:44:29;17.20;99.90
32536;DHT22;18974;50.838;4.636;2023-07-20T04:46:55;17.30;99.90
32536;DHT22;18974;50.838;4.636;2023-07-20T04:49:20;17.30;99.90
32536;DHT22;18974;50.838;4.636;2023-07-20T04:51:46;17.40;99.90
32536;DHT22;18974;50.838;4.636;2023-07-20T04:54:12;17.50;99.90
32536;DHT22;18974;50.838;4.636;2023-07-20T04:56:38;17.50;99.90
32536;DHT22;18974;50.838;4.636;2023-07-20T04:59:04;17.60;99.90
32536;DHT22;18974;50.838;4.636;2023-07-20T05:01:30;17.60;99.90
32536;DHT22;18974;50.838;4.636;2023-07-20T05:03:55;17.70;99.90
32536;DHT22;18974;50.838;4.636;2023-07-20T05:06:21;17.80;99.90
32536;DHT22;18974;50.838;4.636;2023-07-20T05:08:47;17.70;99.90
32536;DHT22;18974;50.838;4.636;2023-07-20T05:11:12;17.70;99.90
32536;DHT22;18974;50.838;4.636;2023-07-20T05:13:38;17.70;99.90
32536;DHT22;18974;50.838;4.636;2023-07-20T05:16:04;17.70;99.90
32536;DHT22;18974;50.838;4.636;2023-07-20T05:18:30;17.80;99.90
32536;DHT22;18974;50.838;4.636;2023-07-20T05:20:55;17.90;99.90
32536;DHT22;18974;50.838;4.636;2023-07-20T05:23:21;18.00;99.90
32536;DHT22;18974;50.838;4.636;2023-07-20T05:25:57;18.10;99.90
32536;DHT22;18974;50.838;4.636;2023-07-20T05:28:24;18.20;99.90
32536;DHT22;18974;50.838;4.636;2023-07-20T05:30:50;18.40;99.90
32536;DHT22;18974;50.838;4.636;2023-07-20T05:33:18;18.40;99.90
32536;DHT22;18974;50.838;4.636;2023-07-20T05:35:43;18.50;99.90
32536;DHT22;18974;50.838;4.636;2023-07-20T05:38:09;18.50;99.90
32536;DHT22;18974;50.838;4.636;2023-07-20T05:40:37;18.60;99.90
32536;DHT22;18974;50.838;4.636;2023-07-20T05:43:03;18.60;99.90
32536;DHT22;18974;50.838;4.636;2023-07-20T05:45:29;18.60;99.90
32536;DHT22;18974;50.838;4.636;2023-07-20T05:47:55;18.50;99.90
32536;DHT22;18974;50.838;4.636;2023-07-20T05:50:20;18.50;99.90
32536;DHT22;18974;50.838;4.636;2023-07-20T05:52:46;18.40;99.90
32536;DHT22;18974;50.838;4.636;2023-07-20T05:55:13;18.40;99.90
32536;DHT22;18974;50.838;4.636;2023-07-20T05:57:38;18.50;99.90
32536;DHT22;18974;50.838;4.636;2023-07-20T06:00:07;18.50;99.90
32536;DHT22;18974;50.838;4.636;2023-07-20T06:02:33;18.50;99.90
32536;DHT22;18974;50.838;4.636;2023-07-20T06:04:59;18.60;99.90
32536;DHT22;18974;50.838;4.636;2023-07-20T06:07:24;18.70;99.90
32536;DHT22;18974;50.838;4.636;2023-07-20T06:09:50;18.60;99.90
32536;DHT22;18974;50.838;4.636;2023-07-20T06:12:16;18.60;99.90
32536;DHT22;18974;50.838;4.636;2023-07-20T06:14:42;18.70;99.90
32536;DHT22;18974;50.838;4.636;2023-07-20T06:17:07;18.80;99.90
32536;DHT22;18974;50.838;4.636;2023-07-20T06:19:33;18.90;99.90
32536;DHT22;18974;50.838;4.636;2023-07-20T06:21:58;19.00;99.90
32536;DHT22;18974;50.838;4.636;2023-07-20T06:24:24;19.00;99.90
32536;DHT22;18974;50.838;4.636;2023-07-20T06:26:50;19.20;99.90
32536;DHT22;18974;50.838;4.636;2023-07-20T06:29:15;19.20;99.90
32536;DHT22;18974;50.838;4.636;2023-07-20T06:31:41;19.10;99.90
32536;DHT22;18974;50.838;4.636;2023-07-20T06:34:07;19.10;99.90
32536;DHT22;18974;50.838;4.636;2023-07-20T06:36:32;19.10;99.90
32536;DHT22;18974;50.838;4.636;2023-07-20T06:38:58;19.00;99.90
32536;DHT22;18974;50.838;4.636;2023-07-20T06:41:23;18.80;99.90
32536;DHT22;18974;50.838;4.636;2023-07-20T06:43:50;18.80;99.90
32536;DHT22;18974;50.838;4.636;2023-07-20T06:46:15;18.80;99.90
32536;DHT22;18974;50.838;4.636;2023-07-20T06:48:41;18.70;99.90
32536;DHT22;18974;50.838;4.636;2023-07-20T06:51:07;18.80;99.90
32536;DHT22;18974;50.838;4.636;2023-07-20T06:53:33;18.80;99.90
32536;DHT22;18974;50.838;4.636;2023-07-20T06:55:58;18.90;99.90
32536;DHT22;18974;50.838;4.636;2023-07-20T06:58:24;18.90;99.90
32536;DHT22;18974;50.838;4.636;2023-07-20T07:00:51;19.00;99.90
32536;DHT22;18974;50.838;4.636;2023-07-20T07:03:17;19.00;99.90
32536;DHT22;18974;50.838;4.636;2023-07-20T07:05:43;19.20;99.90
32536;DHT22;18974;50.838;4.636;2023-07-20T07:08:09;19.20;99.90
32536;DHT22;18974;50.838;4.636;2023-07-20T07:10:35;19.30;99.90
32536;DHT22;18974;50.838;4.636;2023-07-20T07:13:01;19.30;99.90
32536;DHT22;18974;50.838;4.636;2023-07-20T07:15:27;19.30;99.90
32536;DHT22;18974;50.838;4.636;2023-07-20T07:17:53;19.30;99.90
32536;DHT22;18974;50.838;4.636;2023-07-20T07:20:19;19.40;99.90
32536;DHT22;18974;50.838;4.636;2023-07-20T07:22:44;19.60;99.90
32536;DHT22;18974;50.838;4.636;2023-07-20T07:25:11;19.70;99.90
32536;DHT22;18974;50.838;4.636;2023-07-20T07:27:36;19.90;99.90
32536;DHT22;18974;50.838;4.636;2023-07-20T07:30:06;20.10;99.90
32536;DHT22;18974;50.838;4.636;2023-07-20T07:32:31;20.30;99.90
32536;DHT22;18974;50.838;4.636;2023-07-20T07:34:57;20.40;99.90
32536;DHT22;18974;50.838;4.636;2023-07-20T07:37:26;20.70;99.90
32536;DHT22;18974;50.838;4.636;2023-07-20T07:39:51;20.70;99.90
32536;DHT22;18974;50.838;4.636;2023-07-20T07:42:17;20.90;99.90
32536;DHT22;18974;50.838;4.636;2023-07-20T07:44:44;21.10;99.90
32536;DHT22;18974;50.838;4.636;2023-07-20T07:47:10;21.30;99.90
32536;DHT22;18974;50.838;4.636;2023-07-20T07:49:35;21.50;99.90
32536;DHT22;18974;50.838;4.636;2023-07-20T07:52:01;21.80;99.90
32536;DHT22;18974;50.838;4.636;2023-07-20T07:54:29;22.10;99.90
32536;DHT22;18974;50.838;4.636;2023-07-20T07:56:55;22.40;99.90
32536;DHT22;18974;50.838;4.636;2023-07-20T07:59:21;22.70;99.90
32536;DHT22;18974;50.838;4.636;2023-07-20T08:01:47;22.90;99.90
32536;DHT22;18974;50.838;4.636;2023-07-20T08:04:12;22.90;99.90
32536;DHT22;18974;50.838;4.636;2023-07-20T08:06:38;22.70;99.90
32536;DHT22;18974;50.838;4.636;2023-07-20T08:09:04;22.50;99.90
32536;DHT22;18974;50.838;4.636;2023-07-20T08:11:30;22.30;99.90
32536;DHT22;18974;50.838;4.636;2023-07-20T08:14:02;22.10;99.90
32536;DHT22;18974;50.838;4.636;2023-07-20T08:16:28;22.00;99.90
32536;DHT22;18974;50.838;4.636;2023-07-20T08:18:54;21.90;99.90
32536;DHT22;18974;50.838;4.636;2023-07-20T08:21:19;21.90;99.90
32536;DHT22;18974;50.838;4.636;2023-07-20T08:23:45;22.00;99.90
32536;DHT22;18974;50.838;4.636;2023-07-20T08:26:11;22.60;99.90
32536;DHT22;18974;50.838;4.636;2023-07-20T08:28:37;23.00;99.90
32536;DHT22;18974;50.838;4.636;2023-07-20T08:31:05;23.30;99.90
32536;DHT22;18974;50.838;4.636;2023-07-20T08:33:32;23.50;99.90
32536;DHT22;18974;50.838;4.636;2023-07-20T08:35:59;23.60;99.90
32536;DHT22;18974;50.838;4.636;2023-07-20T08:38:26;23.70;99.90
32536;DHT22;18974;50.838;4.636;2023-07-20T08:40:52;23.70;99.90
32536;DHT22;18974;50.838;4.636;2023-07-20T08:43:20;23.60;99.90
32536;DHT22;18974;50.838;4.636;2023-07-20T08:45:48;23.20;99.90
32536;DHT22;18974;50.838;4.636;2023-07-20T08:48:15;23.20;99.90
32536;DHT22;18974;50.838;4.636;2023-07-20T08:50:43;23.20;99.90
32536;DHT22;18974;50.838;4.636;2023-07-20T08:53:10;23.30;99.90
32536;DHT22;18974;50.838;4.636;2023-07-20T08:55:36;23.50;99.90
32536;DHT22;18974;50.838;4.636;2023-07-20T08:58:03;23.60;99.90
32536;DHT22;18974;50.838;4.636;2023-07-20T09:00:30;23.70;99.90
32536;DHT22;18974;50.838;4.636;2023-07-20T09:02:56;23.90;99.90
32536;DHT22;18974;50.838;4.636;2023-07-20T09:05:23;24.10;99.90
32536;DHT22;18974;50.838;4.636;2023-07-20T09:07:52;24.10;99.90
32536;DHT22;18974;50.838;4.636;2023-07-20T09:10:23;24.30;99.90
32536;DHT22;18974;50.838;4.636;2023-07-20T09:12:49;24.30;99.90
32536;DHT22;18974;50.838;4.636;2023-07-20T09:15:15;24.30;99.90
32536;DHT22;18974;50.838;4.636;2023-07-20T09:17:51;24.40;99.90
32536;DHT22;18974;50.838;4.636;2023-07-20T09:20:19;24.70;99.90
32536;DHT22;18974;50.838;4.636;2023-07-20T09:22:44;24.80;99.90
32536;DHT22;18974;50.838;4.636;2023-07-20T09:25:17;24.10;99.90
32536;DHT22;18974;50.838;4.636;2023-07-20T09:27:44;24.00;99.90
32536;DHT22;18974;50.838;4.636;2023-07-20T09:30:11;23.80;99.90
32536;DHT22;18974;50.838;4.636;2023-07-20T09:32:44;23.70;99.90
32536;DHT22;18974;50.838;4.636;2023-07-20T09:35:17;23.60;99.90
32536;DHT22;18974;50.838;4.636;2023-07-20T09:37:49;23.60;99.90
32536;DHT22;18974;50.838;4.636;2023-07-20T09:40:18;23.90;99.90
32536;DHT22;18974;50.838;4.636;2023-07-20T09:42:44;24.20;99.90
32536;DHT22;18974;50.838;4.636;2023-07-20T09:45:09;24.60;99.90
32536;DHT22;18974;50.838;4.636;2023-07-20T09:47:36;24.80;99.90
32536;DHT22;18974;50.838;4.636;2023-07-20T09:50:04;25.10;99.90
32536;DHT22;18974;50.838;4.636;2023-07-20T09:52:41;25.00;99.90
32536;DHT22;18974;50.838;4.636;2023-07-20T09:55:09;24.90;99.90
32536;DHT22;18974;50.838;4.636;2023-07-20T09:57:36;24.90;99.90
32536;DHT22;18974;50.838;4.636;2023-07-20T10:00:07;24.70;99.80
32536;DHT22;18974;50.838;4.636;2023-07-20T10:02:44;24.80;99.90
32536;DHT22;18974;50.838;4.636;2023-07-20T10:05:14;24.80;99.90
32536;DHT22;18974;50.838;4.636;2023-07-20T10:07:46;24.70;99.90
32536;DHT22;18974;50.838;4.636;2023-07-20T10:10:14;24.60;99.90
32536;DHT22;18974;50.838;4.636;2023-07-20T10:12:41;24.60;99.90
32536;DHT22;18974;50.838;4.636;2023-07-20T10:17:45;24.40;99.90
32536;DHT22;18974;50.838;4.636;2023-07-20T10:20:16;24.40;99.90
32536;DHT22;18974;50.838;4.636;2023-07-20T10:22:47;24.50;99.90
32536;DHT22;18974;50.838;4.636;2023-07-20T10:25:16;24.60;99.90
32536;DHT22;18974;50.838;4.636;2023-07-20T10:27:42;24.60;99.90
32536;DHT22;18974;50.838;4.636;2023-07-20T10:30:08;24.60;99.90
32536;DHT22;18974;50.838;4.636;2023-07-20T10:32:34;24.60;99.90
32536;DHT22;18974;50.838;4.636;2023-07-20T10:35:00;24.40;99.90
32536;DHT22;18974;50.838;4.636;2023-07-20T10:37:45;24.20;99.90
32536;DHT22;18974;50.838;4.636;2023-07-20T10:40:31;24.40;99.90
32536;DHT22;18974;50.838;4.636;2023-07-20T10:45:35;24.30;99.90
32536;DHT22;18974;50.838;4.636;2023-07-20T10:48:05;24.30;99.90
32536;DHT22;18974;50.838;4.636;2023-07-20T10:50:32;24.40;99.90
32536;DHT22;18974;50.838;4.636;2023-07-20T10:53:19;24.50;99.90
32536;DHT22;18974;50.838;4.636;2023-07-20T10:55:44;24.70;99.90
32536;DHT22;18974;50.838;4.636;2023-07-20T10:58:14;24.80;99.90
32536;DHT22;18974;50.838;4.636;2023-07-20T11:01:02;25.00;99.90
32536;DHT22;18974;50.838;4.636;2023-07-20T11:05:56;25.20;99.90
32536;DHT22;18974;50.838;4.636;2023-07-20T11:08:41;25.20;99.90
32536;DHT22;18974;50.838;4.636;2023-07-20T11:11:27;25.20;99.90
32536;DHT22;18974;50.838;4.636;2023-07-20T11:13:54;25.20;99.90
32536;DHT22;18974;50.838;4.636;2023-07-20T11:16:32;25.10;99.90
32536;DHT22;18974;50.838;4.636;2023-07-20T11:18:59;24.90;99.90
32536;DHT22;18974;50.838;4.636;2023-07-20T11:21:24;24.80;99.90
32536;DHT22;18974;50.838;4.636;2023-07-20T11:23:52;24.60;99.90
32536;DHT22;18974;50.838;4.636;2023-07-20T11:26:18;24.40;99.90
32536;DHT22;18974;50.838;4.636;2023-07-20T11:28:51;24.20;99.90
32536;DHT22;18974;50.838;4.636;2023-07-20T11:31:18;24.20;99.90
32536;DHT22;18974;50.838;4.636;2023-07-20T11:33:44;24.00;99.90
32536;DHT22;18974;50.838;4.636;2023-07-20T11:36:10;23.90;99.90
32536;DHT22;18974;50.838;4.636;2023-07-20T11:38:35;23.80;99.90
32536;DHT22;18974;50.838;4.636;2023-07-20T11:41:04;23.80;99.90
32536;DHT22;18974;50.838;4.636;2023-07-20T11:43:30;23.80;99.90
32536;DHT22;18974;50.838;4.636;2023-07-20T11:45:56;23.70;99.90
32536;DHT22;18974;50.838;4.636;2023-07-20T11:48:22;23.80;99.90
32536;DHT22;18974;50.838;4.636;2023-07-20T11:50:48;24.00;99.90
32536;DHT22;18974;50.838;4.636;2023-07-20T11:53:14;24.10;99.90
32536;DHT22;18974;50.838;4.636;2023-07-20T11:55:41;24.40;99.90
32536;DHT22;18974;50.838;4.636;2023-07-20T11:58:09;24.90;99.90
32536;DHT22;18974;50.838;4.636;2023-07-20T12:00:38;25.30;99.50
32536;DHT22;18974;50.838;4.636;2023-07-20T12:03:06;25.80;99.60
32536;DHT22;18974;50.838;4.636;2023-07-20T12:05:37;26.20;99.50
32536;DHT22;18974;50.838;4.636;2023-07-20T12:08:03;26.70;99.90
32536;DHT22;18974;50.838;4.636;2023-07-20T12:10:29;26.80;98.60
32536;DHT22;18974;50.838;4.636;2023-07-20T12:13:01;26.80;99.00
32536;DHT22;18974;50.838;4.636;2023-07-20T12:15:28;26.90;98.40
32536;DHT22;18974;50.838;4.636;2023-07-20T12:18:02;26.70;97.90
32536;DHT22;18974;50.838;4.636;2023-07-20T12:20:36;26.60;98.60
32536;DHT22;18974;50.838;4.636;2023-07-20T12:23:06;26.60;98.00
32536;DHT22;18974;50.838;4.636;2023-07-20T12:25:43;26.40;98.20
32536;DHT22;18974;50.838;4.636;2023-07-20T12:28:12;26.60;98.20
32536;DHT22;18974;50.838;4.636;2023-07-20T12:30:38;26.90;98.40
32536;DHT22;18974;50.838;4.636;2023-07-20T12:33:04;27.00;97.60
32536;DHT22;18974;50.838;4.636;2023-07-20T12:35:31;27.10;97.00
32536;DHT22;18974;50.838;4.636;2023-07-20T12:37:57;27.20;96.60
32536;DHT22;18974;50.838;4.636;2023-07-20T12:40:23;27.30;96.50
32536;DHT22;18974;50.838;4.636;2023-07-20T12:42:48;27.30;96.70
32536;DHT22;18974;50.838;4.636;2023-07-20T12:45:14;27.30;96.60
32536;DHT22;18974;50.838;4.636;2023-07-20T12:47:40;27.30;96.80
32536;DHT22;18974;50.838;4.636;2023-07-20T12:50:07;27.40;97.00
32536;DHT22;18974;50.838;4.636;2023-07-20T12:52:38;27.40;96.10
32536;DHT22;18974;50.838;4.636;2023-07-20T12:55:07;27.40;96.00
32536;DHT22;18974;50.838;4.636;2023-07-20T12:57:37;27.40;95.40
32536;DHT22;18974;50.838;4.636;2023-07-20T13:00:09;27.40;95.40
32536;DHT22;18974;50.838;4.636;2023-07-20T13:02:35;27.40;96.30
32536;DHT22;18974;50.838;4.636;2023-07-20T13:05:02;27.60;97.20
32536;DHT22;18974;50.838;4.636;2023-07-20T13:07:36;27.60;94.90
32536;DHT22;18974;50.838;4.636;2023-07-20T13:10:03;27.60;94.90
32536;DHT22;18974;50.838;4.636;2023-07-20T13:12:31;27.50;93.90
32536;DHT22;18974;50.838;4.636;2023-07-20T13:14:57;27.40;93.90
32536;DHT22;18974;50.838;4.636;2023-07-20T13:17:26;27.40;95.20
32536;DHT22;18974;50.838;4.636;2023-07-20T13:19:52;27.40;96.00
32536;DHT22;18974;50.838;4.636;2023-07-20T13:22:18;27.40;97.00
32536;DHT22;18974;50.838;4.636;2023-07-20T13:24:45;27.30;96.10
32536;DHT22;18974;50.838;4.636;2023-07-20T13:27:15;27.10;96.20
32536;DHT22;18974;50.838;4.636;2023-07-20T13:29:41;27.00;97.10
32536;DHT22;18974;50.838;4.636;2023-07-20T13:32:07;26.90;98.90
32536;DHT22;18974;50.838;4.636;2023-07-20T13:34:33;26.70;96.60
32536;DHT22;18974;50.838;4.636;2023-07-20T13:36:59;26.30;95.60
32536;DHT22;18974;50.838;4.636;2023-07-20T13:39:25;26.10;98.20
32536;DHT22;18974;50.838;4.636;2023-07-20T13:41:52;26.00;97.50
32536;DHT22;18974;50.838;4.636;2023-07-20T13:44:18;25.80;98.00
32536;DHT22;18974;50.838;4.636;2023-07-20T13:46:46;25.60;99.30
32536;DHT22;18974;50.838;4.636;2023-07-20T13:49:11;25.60;99.90
32536;DHT22;18974;50.838;4.636;2023-07-20T13:51:37;25.40;98.60
32536;DHT22;18974;50.838;4.636;2023-07-20T13:54:03;25.30;99.20
32536;DHT22;18974;50.838;4.636;2023-07-20T13:56:29;25.40;99.70
32536;DHT22;18974;50.838;4.636;2023-07-20T13:58:55;25.40;99.90
32536;DHT22;18974;50.838;4.636;2023-07-20T14:01:20;25.50;99.90
32536;DHT22;18974;50.838;4.636;2023-07-20T14:03:48;25.50;99.60
32536;DHT22;18974;50.838;4.636;2023-07-20T14:06:14;25.40;99.90
32536;DHT22;18974;50.838;4.636;2023-07-20T14:08:40;25.40;99.90
32536;DHT22;18974;50.838;4.636;2023-07-20T14:11:06;25.40;99.90
32536;DHT22;18974;50.838;4.636;2023-07-20T14:13:32;25.30;99.90
32536;DHT22;18974;50.838;4.636;2023-07-20T14:15:57;25.30;99.90
32536;DHT22;18974;50.838;4.636;2023-07-20T14:18:23;25.50;99.80
32536;DHT22;18974;50.838;4.636;2023-07-20T14:20:49;25.60;99.90
32536;DHT22;18974;50.838;4.636;2023-07-20T14:23:15;26.00;99.90
32536;DHT22;18974;50.838;4.636;2023-07-20T14:25:41;26.20;99.90
32536;DHT22;18974;50.838;4.636;2023-07-20T14:28:07;26.30;99.90
32536;DHT22;18974;50.838;4.636;2023-07-20T14:30:33;26.40;99.70
32536;DHT22;18974;50.838;4.636;2023-07-20T14:32:59;26.40;99.30
32536;DHT22;18974;50.838;4.636;2023-07-20T14:35:25;26.40;98.60
32536;DHT22;18974;50.838;4.636;2023-07-20T14:37:51;26.30;98.70
32536;DHT22;18974;50.838;4.636;2023-07-20T14:40:17;26.20;98.70
32536;DHT22;18974;50.838;4.636;2023-07-20T14:42:43;26.10;99.10
32536;DHT22;18974;50.838;4.636;2023-07-20T14:45:09;26.10;99.40
32536;DHT22;18974;50.838;4.636;2023-07-20T14:47:34;26.00;97.90
32536;DHT22;18974;50.838;4.636;2023-07-20T14:50:04;26.00;99.90
32536;DHT22;18974;50.838;4.636;2023-07-20T14:52:30;25.90;99.40
32536;DHT22;18974;50.838;4.636;2023-07-20T14:54:56;25.70;99.90
32536;DHT22;18974;50.838;4.636;2023-07-20T14:57:21;25.50;99.30
32536;DHT22;18974;50.838;4.636;2023-07-20T14:59:49;25.30;98.10
32536;DHT22;18974;50.838;4.636;2023-07-20T15:02:15;25.10;98.00
32536;DHT22;18974;50.838;4.636;2023-07-20T15:04:51;24.90;98.40
32536;DHT22;18974;50.838;4.636;2023-07-20T15:07:18;25.00;98.50
32536;DHT22;18974;50.838;4.636;2023-07-20T15:09:45;25.00;98.30
32536;DHT22;18974;50.838;4.636;2023-07-20T15:12:11;25.10;98.30
32536;DHT22;18974;50.838;4.636;2023-07-20T15:14:40;24.90;98.00
32536;DHT22;18974;50.838;4.636;2023-07-20T15:17:07;24.80;97.80
32536;DHT22;18974;50.838;4.636;2023-07-20T15:19:32;24.80;98.20
32536;DHT22;18974;50.838;4.636;2023-07-20T15:22:00;24.70;97.30
32536;DHT22;18974;50.838;4.636;2023-07-20T15:24:25;24.70;98.00
32536;DHT22;18974;50.838;4.636;2023-07-20T15:26:51;24.60;97.50
32536;DHT22;18974;50.838;4.636;2023-07-20T15:29:16;24.70;97.80
32536;DHT22;18974;50.838;4.636;2023-07-20T15:31:42;24.70;97.60
32536;DHT22;18974;50.838;4.636;2023-07-20T15:34:08;24.70;96.90
32536;DHT22;18974;50.838;4.636;2023-07-20T15:36:33;24.90;98.90
32536;DHT22;18974;50.838;4.636;2023-07-20T15:38:59;25.10;97.10
32536;DHT22;18974;50.838;4.636;2023-07-20T15:41:25;25.20;98.60
32536;DHT22;18974;50.838;4.636;2023-07-20T15:43:50;25.40;97.90
32536;DHT22;18974;50.838;4.636;2023-07-20T15:48:49;25.60;99.90
32536;DHT22;18974;50.838;4.636;2023-07-20T15:51:15;25.50;99.30